sensor_id;sensor_type;location;lat;lon;timestamp;P1;durP1;ratioP1;P2;durP2;ratioP2
45136;SDS011;30894;51.740;19.498;2023-06-05T00:02:25;8.15;;;2.10;;
45136;SDS011;30894;51.740;19.498;2023-06-05T00:04:51;4.53;;;2.22;;
45136;SDS011;30894;51.740;19.498;2023-06-05T00:07:18;4.60;;;1.60;;
45136;SDS011;30894;51.740;19.498;2023-06-05T00:09:45;4.15;;;2.40;;
45136;SDS011;30894;51.740;19.498;2023-06-05T00:12:10;3.60;;;2.10;;
45136;SDS011;30894;51.740;19.498;2023-06-05T00:14:37;4.70;;;1.90;;
45136;SDS011;30894;51.740;19.498;2023-06-05T00:17:03;4.75;;;2.05;;
45136;SDS011;30894;51.740;19.498;2023-06-05T00:19:29;3.92;;;1.85;;
45136;SDS011;30894;51.740;19.498;2023-06-05T00:21:56;5.57;;;1.95;;
45136;SDS011;30894;51.740;19.498;2023-06-05T00:24:23;9.52;;;2.15;;
45136;SDS011;30894;51.740;19.498;2023-06-05T00:26:48;5.93;;;2.35;;
45136;SDS011;30894;51.740;19.498;2023-06-05T00:29:15;3.83;;;2.20;;
45136;SDS011;30894;51.740;19.498;2023-06-05T00:31:42;6.05;;;1.60;;
45136;SDS011;30894;51.740;19.498;2023-06-05T00:34:09;3.92;;;2.00;;
45136;SDS011;30894;51.740;19.498;2023-06-05T00:36:35;4.05;;;1.75;;
45136;SDS011;30894;51.740;19.498;2023-06-05T00:39:02;6.20;;;2.42;;
45136;SDS011;30894;51.740;19.498;2023-06-05T00:41:28;8.48;;;2.20;;
45136;SDS011;30894;51.740;19.498;2023-06-05T00:43:54;5.45;;;2.20;;
45136;SDS011;30894;51.740;19.498;2023-06-05T00:46:20;4.25;;;1.98;;
45136;SDS011;30894;51.740;19.498;2023-06-05T00:48:47;3.20;;;2.00;;
45136;SDS011;30894;51.740;19.498;2023-06-05T00:51:14;7.05;;;2.00;;
45136;SDS011;30894;51.740;19.498;2023-06-05T00:53:42;4.13;;;2.00;;
45136;SDS011;30894;51.740;19.498;2023-06-05T00:56:10;12.25;;;3.03;;
45136;SDS011;30894;51.740;19.498;2023-06-05T00:58:37;3.42;;;2.10;;
45136;SDS011;30894;51.740;19.498;2023-06-05T01:01:03;7.63;;;2.08;;
45136;SDS011;30894;51.740;19.498;2023-06-05T01:03:32;5.63;;;2.05;;
45136;SDS011;30894;51.740;19.498;2023-06-05T01:06:01;5.22;;;2.08;;
45136;SDS011;30894;51.740;19.498;2023-06-05T01:08:30;6.43;;;2.15;;
45136;SDS011;30894;51.740;19.498;2023-06-05T01:11:09;11.55;;;2.17;;
45136;SDS011;30894;51.740;19.498;2023-06-05T01:14:02;4.27;;;2.40;;
45136;SDS011;30894;51.740;19.498;2023-06-05T01:16:41;2.97;;;2.05;;
45136;SDS011;30894;51.740;19.498;2023-06-05T01:19:14;10.52;;;2.40;;
45136;SDS011;30894;51.740;19.498;2023-06-05T01:21:40;12.45;;;2.35;;
45136;SDS011;30894;51.740;19.498;2023-06-05T01:24:06;6.93;;;2.33;;
45136;SDS011;30894;51.740;19.498;2023-06-05T01:26:35;3.75;;;1.98;;
45136;SDS011;30894;51.740;19.498;2023-06-05T01:29:10;2.70;;;1.80;;
45136;SDS011;30894;51.740;19.498;2023-06-05T01:31:39;5.30;;;2.30;;
45136;SDS011;30894;51.740;19.498;2023-06-05T01:34:11;6.80;;;2.33;;
45136;SDS011;30894;51.740;19.498;2023-06-05T01:36:38;5.53;;;2.58;;
45136;SDS011;30894;51.740;19.498;2023-06-05T01:39:06;6.88;;;2.33;;
45136;SDS011;30894;51.740;19.498;2023-06-05T01:41:33;5.10;;;2.30;;
45136;SDS011;30894;51.740;19.498;2023-06-05T01:44:00;3.55;;;1.90;;
45136;SDS011;30894;51.740;19.498;2023-06-05T01:46:27;5.18;;;2.20;;
45136;SDS011;30894;51.740;19.498;2023-06-05T01:48:53;5.00;;;2.17;;
45136;SDS011;30894;51.740;19.498;2023-06-05T01:51:19;4.32;;;2.10;;
45136;SDS011;30894;51.740;19.498;2023-06-05T01:53:46;6.13;;;1.95;;
45136;SDS011;30894;51.740;19.498;2023-06-05T01:56:15;4.90;;;2.10;;
45136;SDS011;30894;51.740;19.498;2023-06-05T01:58:46;5.97;;;2.15;;
45136;SDS011;30894;51.740;19.498;2023-06-05T02:01:12;6.00;;;1.92;;
45136;SDS011;30894;51.740;19.498;2023-06-05T02:03:41;3.60;;;1.83;;
45136;SDS011;30894;51.740;19.498;2023-06-05T02:06:13;8.27;;;2.47;;
45136;SDS011;30894;51.740;19.498;2023-06-05T02:08:41;2.88;;;1.67;;
45136;SDS011;30894;51.740;19.498;2023-06-05T02:11:08;3.92;;;2.30;;
45136;SDS011;30894;51.740;19.498;2023-06-05T02:13:37;4.40;;;2.25;;
45136;SDS011;30894;51.740;19.498;2023-06-05T02:16:04;3.53;;;2.05;;
45136;SDS011;30894;51.740;19.498;2023-06-05T02:18:33;3.75;;;2.03;;
45136;SDS011;30894;51.740;19.498;2023-06-05T02:21:02;2.72;;;1.65;;
45136;SDS011;30894;51.740;19.498;2023-06-05T02:23:29;6.65;;;2.00;;
45136;SDS011;30894;51.740;19.498;2023-06-05T02:25:56;3.75;;;1.73;;
45136;SDS011;30894;51.740;19.498;2023-06-05T02:28:22;5.03;;;2.15;;
45136;SDS011;30894;51.740;19.498;2023-06-05T02:30:48;5.50;;;2.30;;
45136;SDS011;30894;51.740;19.498;2023-06-05T02:33:14;4.55;;;2.08;;
45136;SDS011;30894;51.740;19.498;2023-06-05T02:35:40;3.53;;;1.92;;
45136;SDS011;30894;51.740;19.498;2023-06-05T02:38:08;3.15;;;1.75;;
45136;SDS011;30894;51.740;19.498;2023-06-05T02:40:35;4.63;;;1.83;;
45136;SDS011;30894;51.740;19.498;2023-06-05T02:43:01;3.58;;;2.03;;
45136;SDS011;30894;51.740;19.498;2023-06-05T02:45:30;1.95;;;1.45;;
45136;SDS011;30894;51.740;19.498;2023-06-05T02:47:59;3.17;;;1.67;;
45136;SDS011;30894;51.740;19.498;2023-06-05T02:50:25;2.78;;;1.83;;
45136;SDS011;30894;51.740;19.498;2023-06-05T02:52:51;3.85;;;2.42;;
45136;SDS011;30894;51.740;19.498;2023-06-05T02:55:17;4.05;;;1.73;;
45136;SDS011;30894;51.740;19.498;2023-06-05T02:57:43;6.47;;;1.95;;
45136;SDS011;30894;51.740;19.498;2023-06-05T03:00:12;4.60;;;2.05;;
45136;SDS011;30894;51.740;19.498;2023-06-05T03:02:42;5.00;;;2.13;;
45136;SDS011;30894;51.740;19.498;2023-06-05T03:05:13;3.65;;;2.15;;
45136;SDS011;30894;51.740;19.498;2023-06-05T03:07:44;5.45;;;2.00;;
45136;SDS011;30894;51.740;19.498;2023-06-05T03:10:10;2.90;;;1.85;;
45136;SDS011;30894;51.740;19.498;2023-06-05T03:12:36;4.78;;;2.25;;
45136;SDS011;30894;51.740;19.498;2023-06-05T03:15:02;4.60;;;1.92;;
45136;SDS011;30894;51.740;19.498;2023-06-05T03:17:29;8.32;;;2.70;;
45136;SDS011;30894;51.740;19.498;2023-06-05T03:19:55;6.80;;;1.83;;
45136;SDS011;30894;51.740;19.498;2023-06-05T03:22:21;3.13;;;1.85;;
45136;SDS011;30894;51.740;19.498;2023-06-05T03:24:49;4.75;;;2.30;;
45136;SDS011;30894;51.740;19.498;2023-06-05T03:27:17;5.22;;;2.22;;
45136;SDS011;30894;51.740;19.498;2023-06-05T03:29:43;4.00;;;2.22;;
45136;SDS011;30894;51.740;19.498;2023-06-05T03:32:09;7.63;;;2.42;;
45136;SDS011;30894;51.740;19.498;2023-06-05T03:34:35;4.28;;;2.10;;
45136;SDS011;30894;51.740;19.498;2023-06-05T03:37:03;2.63;;;2.08;;
45136;SDS011;30894;51.740;19.498;2023-06-05T03:39:30;3.42;;;2.03;;
45136;SDS011;30894;51.740;19.498;2023-06-05T03:41:56;4.40;;;2.00;;
45136;SDS011;30894;51.740;19.498;2023-06-05T03:44:22;7.55;;;2.63;;
45136;SDS011;30894;51.740;19.498;2023-06-05T03:46:50;6.55;;;2.65;;
45136;SDS011;30894;51.740;19.498;2023-06-05T03:49:16;6.68;;;2.17;;
45136;SDS011;30894;51.740;19.498;2023-06-05T03:51:43;2.80;;;1.95;;
45136;SDS011;30894;51.740;19.498;2023-06-05T03:54:11;5.45;;;2.25;;
45136;SDS011;30894;51.740;19.498;2023-06-05T03:56:38;6.00;;;1.80;;
45136;SDS011;30894;51.740;19.498;2023-06-05T03:59:08;3.17;;;1.80;;
45136;SDS011;30894;51.740;19.498;2023-06-05T04:01:43;4.03;;;1.90;;
45136;SDS011;30894;51.740;19.498;2023-06-05T04:04:10;4.80;;;1.88;;
45136;SDS011;30894;51.740;19.498;2023-06-05T04:06:36;4.18;;;2.13;;
45136;SDS011;30894;51.740;19.498;2023-06-05T04:09:02;4.38;;;2.35;;
45136;SDS011;30894;51.740;19.498;2023-06-05T04:11:37;3.10;;;1.63;;
45136;SDS011;30894;51.740;19.498;2023-06-05T04:14:04;10.43;;;2.10;;
45136;SDS011;30894;51.740;19.498;2023-06-05T04:16:31;6.15;;;2.35;;
45136;SDS011;30894;51.740;19.498;2023-06-05T04:18:59;6.53;;;2.13;;
45136;SDS011;30894;51.740;19.498;2023-06-05T04:21:27;6.22;;;2.08;;
45136;SDS011;30894;51.740;19.498;2023-06-05T04:23:53;7.32;;;2.20;;
45136;SDS011;30894;51.740;19.498;2023-06-05T04:26:19;5.05;;;1.80;;
45136;SDS011;30894;51.740;19.498;2023-06-05T04:28:46;3.88;;;1.95;;
45136;SDS011;30894;51.740;19.498;2023-06-05T04:31:16;4.47;;;2.22;;
45136;SDS011;30894;51.740;19.498;2023-06-05T04:33:43;5.88;;;1.92;;
45136;SDS011;30894;51.740;19.498;2023-06-05T04:36:09;3.78;;;1.98;;
45136;SDS011;30894;51.740;19.498;2023-06-05T04:38:37;2.17;;;1.50;;
45136;SDS011;30894;51.740;19.498;2023-06-05T04:41:07;7.57;;;2.03;;
45136;SDS011;30894;51.740;19.498;2023-06-05T04:43:33;6.00;;;2.15;;
45136;SDS011;30894;51.740;19.498;2023-06-05T04:46:00;5.50;;;2.30;;
45136;SDS011;30894;51.740;19.498;2023-06-05T04:48:28;5.57;;;1.80;;
45136;SDS011;30894;51.740;19.498;2023-06-05T04:50:55;3.80;;;1.73;;
45136;SDS011;30894;51.740;19.498;2023-06-05T04:53:22;2.28;;;1.30;;
45136;SDS011;30894;51.740;19.498;2023-06-05T04:55:48;2.65;;;1.50;;
45136;SDS011;30894;51.740;19.498;2023-06-05T04:58:14;2.13;;;1.05;;
45136;SDS011;30894;51.740;19.498;2023-06-05T05:00:42;2.20;;;1.20;;
45136;SDS011;30894;51.740;19.498;2023-06-05T05:03:09;3.50;;;1.33;;
45136;SDS011;30894;51.740;19.498;2023-06-05T05:05:39;3.05;;;1.27;;
45136;SDS011;30894;51.740;19.498;2023-06-05T05:08:05;4.45;;;1.35;;
45136;SDS011;30894;51.740;19.498;2023-06-05T05:10:31;4.60;;;2.30;;
45136;SDS011;30894;51.740;19.498;2023-06-05T05:12:57;3.65;;;1.60;;
45136;SDS011;30894;51.740;19.498;2023-06-05T05:15:27;3.03;;;1.45;;
45136;SDS011;30894;51.740;19.498;2023-06-05T05:17:54;3.25;;;1.33;;
45136;SDS011;30894;51.740;19.498;2023-06-05T05:20:22;2.50;;;1.13;;
45136;SDS011;30894;51.740;19.498;2023-06-05T05:22:49;1.77;;;1.23;;
45136;SDS011;30894;51.740;19.498;2023-06-05T05:25:16;6.85;;;1.50;;
45136;SDS011;30894;51.740;19.498;2023-06-05T05:27:42;2.95;;;1.40;;
45136;SDS011;30894;51.740;19.498;2023-06-05T05:30:08;2.60;;;1.10;;
45136;SDS011;30894;51.740;19.498;2023-06-05T05:32:38;3.22;;;1.10;;
45136;SDS011;30894;51.740;19.498;2023-06-05T05:35:04;2.78;;;1.45;;
45136;SDS011;30894;51.740;19.498;2023-06-05T05:37:32;1.77;;;1.02;;
45136;SDS011;30894;51.740;19.498;2023-06-05T05:39:58;0.88;;;0.80;;
45136;SDS011;30894;51.740;19.498;2023-06-05T05:42:27;3.15;;;1.00;;
45136;SDS011;30894;51.740;19.498;2023-06-05T05:44:57;2.60;;;0.88;;
45136;SDS011;30894;51.740;19.498;2023-06-05T05:47:23;2.10;;;1.00;;
45136;SDS011;30894;51.740;19.498;2023-06-05T05:49:49;1.65;;;1.20;;
45136;SDS011;30894;51.740;19.498;2023-06-05T05:52:16;1.80;;;1.33;;
45136;SDS011;30894;51.740;19.498;2023-06-05T05:54:46;1.00;;;0.80;;
45136;SDS011;30894;51.740;19.498;2023-06-05T05:57:12;1.73;;;0.88;;
45136;SDS011;30894;51.740;19.498;2023-06-05T05:59:39;3.63;;;1.02;;
45136;SDS011;30894;51.740;19.498;2023-06-05T06:02:12;2.95;;;0.98;;
45136;SDS011;30894;51.740;19.498;2023-06-05T06:04:39;2.00;;;1.05;;
45136;SDS011;30894;51.740;19.498;2023-06-05T06:07:05;1.75;;;0.90;;
45136;SDS011;30894;51.740;19.498;2023-06-05T06:09:32;0.98;;;0.80;;
45136;SDS011;30894;51.740;19.498;2023-06-05T06:11:58;1.88;;;0.90;;
45136;SDS011;30894;51.740;19.498;2023-06-05T06:14:28;4.82;;;0.85;;
45136;SDS011;30894;51.740;19.498;2023-06-05T06:16:54;1.30;;;0.90;;
45136;SDS011;30894;51.740;19.498;2023-06-05T06:19:23;1.38;;;1.02;;
45136;SDS011;30894;51.740;19.498;2023-06-05T06:21:50;1.15;;;0.70;;
45136;SDS011;30894;51.740;19.498;2023-06-05T06:24:17;1.77;;;0.88;;
45136;SDS011;30894;51.740;19.498;2023-06-05T06:26:48;1.48;;;0.68;;
45136;SDS011;30894;51.740;19.498;2023-06-05T06:29:18;1.90;;;0.68;;
45136;SDS011;30894;51.740;19.498;2023-06-05T06:31:46;1.25;;;0.80;;
45136;SDS011;30894;51.740;19.498;2023-06-05T06:34:14;0.75;;;0.70;;
45136;SDS011;30894;51.740;19.498;2023-06-05T06:36:40;1.30;;;0.80;;
45136;SDS011;30894;51.740;19.498;2023-06-05T06:39:12;2.13;;;0.68;;
45136;SDS011;30894;51.740;19.498;2023-06-05T06:41:38;2.05;;;0.60;;
45136;SDS011;30894;51.740;19.498;2023-06-05T06:44:04;3.72;;;0.50;;
45136;SDS011;30894;51.740;19.498;2023-06-05T06:46:31;1.17;;;0.80;;
45136;SDS011;30894;51.740;19.498;2023-06-05T06:48:58;1.00;;;0.70;;
45136;SDS011;30894;51.740;19.498;2023-06-05T06:51:26;0.68;;;0.45;;
45136;SDS011;30894;51.740;19.498;2023-06-05T06:53:55;0.63;;;0.63;;
45136;SDS011;30894;51.740;19.498;2023-06-05T06:56:21;1.27;;;0.52;;
45136;SDS011;30894;51.740;19.498;2023-06-05T06:58:47;1.23;;;0.60;;
45136;SDS011;30894;51.740;19.498;2023-06-05T07:01:14;0.93;;;0.60;;
45136;SDS011;30894;51.740;19.498;2023-06-05T07:03:41;0.57;;;0.55;;
45136;SDS011;30894;51.740;19.498;2023-06-05T07:06:08;1.33;;;0.65;;
45136;SDS011;30894;51.740;19.498;2023-06-05T07:08:37;1.52;;;0.60;;
45136;SDS011;30894;51.740;19.498;2023-06-05T07:11:03;1.85;;;0.60;;
45136;SDS011;30894;51.740;19.498;2023-06-05T07:13:30;0.55;;;0.50;;
45136;SDS011;30894;51.740;19.498;2023-06-05T07:15:56;1.70;;;0.57;;
45136;SDS011;30894;51.740;19.498;2023-06-05T07:18:23;0.80;;;0.50;;
45136;SDS011;30894;51.740;19.498;2023-06-05T07:20:49;0.77;;;0.73;;
45136;SDS011;30894;51.740;19.498;2023-06-05T07:23:18;1.75;;;0.50;;
45136;SDS011;30894;51.740;19.498;2023-06-05T07:25:44;3.88;;;0.70;;
45136;SDS011;30894;51.740;19.498;2023-06-05T07:28:11;6.00;;;0.65;;
45136;SDS011;30894;51.740;19.498;2023-06-05T07:30:38;1.27;;;0.75;;
45136;SDS011;30894;51.740;19.498;2023-06-05T07:33:09;0.82;;;0.55;;
45136;SDS011;30894;51.740;19.498;2023-06-05T07:35:36;1.40;;;0.70;;
45136;SDS011;30894;51.740;19.498;2023-06-05T07:38:02;1.80;;;0.50;;
45136;SDS011;30894;51.740;19.498;2023-06-05T07:40:28;1.27;;;0.55;;
45136;SDS011;30894;51.740;19.498;2023-06-05T07:42:54;3.53;;;0.70;;
45136;SDS011;30894;51.740;19.498;2023-06-05T07:45:21;5.20;;;0.88;;
45136;SDS011;30894;51.740;19.498;2023-06-05T07:47:48;0.85;;;0.70;;
45136;SDS011;30894;51.740;19.498;2023-06-05T07:50:17;1.67;;;0.65;;
45136;SDS011;30894;51.740;19.498;2023-06-05T07:52:43;0.70;;;0.65;;
45136;SDS011;30894;51.740;19.498;2023-06-05T07:55:10;1.90;;;0.82;;
45136;SDS011;30894;51.740;19.498;2023-06-05T07:57:36;0.93;;;0.52;;
45136;SDS011;30894;51.740;19.498;2023-06-05T08:00:03;2.15;;;0.70;;
45136;SDS011;30894;51.740;19.498;2023-06-05T08:02:35;1.15;;;0.77;;
45136;SDS011;30894;51.740;19.498;2023-06-05T08:05:02;0.43;;;0.43;;
45136;SDS011;30894;51.740;19.498;2023-06-05T08:07:29;1.52;;;0.52;;
45136;SDS011;30894;51.740;19.498;2023-06-05T08:09:55;3.85;;;0.80;;
45136;SDS011;30894;51.740;19.498;2023-06-05T08:12:22;0.40;;;0.40;;
45136;SDS011;30894;51.740;19.498;2023-06-05T08:14:49;1.90;;;0.60;;
45136;SDS011;30894;51.740;19.498;2023-06-05T08:17:15;0.63;;;0.60;;
45136;SDS011;30894;51.740;19.498;2023-06-05T08:19:41;1.08;;;0.50;;
45136;SDS011;30894;51.740;19.498;2023-06-05T08:22:07;9.05;;;0.95;;
45136;SDS011;30894;51.740;19.498;2023-06-05T08:24:34;0.70;;;0.60;;
45136;SDS011;30894;51.740;19.498;2023-06-05T08:27:00;0.60;;;0.45;;
45136;SDS011;30894;51.740;19.498;2023-06-05T08:29:27;1.27;;;0.50;;
45136;SDS011;30894;51.740;19.498;2023-06-05T08:32:04;0.88;;;0.63;;
45136;SDS011;30894;51.740;19.498;2023-06-05T08:34:31;2.45;;;0.70;;
45136;SDS011;30894;51.740;19.498;2023-06-05T08:36:58;1.60;;;0.60;;
45136;SDS011;30894;51.740;19.498;2023-06-05T08:39:24;4.15;;;0.63;;
45136;SDS011;30894;51.740;19.498;2023-06-05T08:41:54;6.72;;;0.90;;
45136;SDS011;30894;51.740;19.498;2023-06-05T08:44:29;1.27;;;0.70;;
45136;SDS011;30894;51.740;19.498;2023-06-05T08:47:01;1.88;;;0.70;;
45136;SDS011;30894;51.740;19.498;2023-06-05T08:49:28;2.20;;;0.80;;
45136;SDS011;30894;51.740;19.498;2023-06-05T08:51:57;1.80;;;0.60;;
45136;SDS011;30894;51.740;19.498;2023-06-05T08:54:30;1.55;;;0.60;;
45136;SDS011;30894;51.740;19.498;2023-06-05T08:57:02;0.43;;;0.35;;
45136;SDS011;30894;51.740;19.498;2023-06-05T08:59:33;0.70;;;0.47;;
45136;SDS011;30894;51.740;19.498;2023-06-05T09:02:03;0.43;;;0.43;;
45136;SDS011;30894;51.740;19.498;2023-06-05T09:04:31;1.38;;;0.55;;
45136;SDS011;30894;51.740;19.498;2023-06-05T09:07:01;0.63;;;0.60;;
45136;SDS011;30894;51.740;19.498;2023-06-05T09:09:33;1.55;;;0.77;;
45136;SDS011;30894;51.740;19.498;2023-06-05T09:12:06;0.75;;;0.50;;
45136;SDS011;30894;51.740;19.498;2023-06-05T09:14:34;2.28;;;0.80;;
45136;SDS011;30894;51.740;19.498;2023-06-05T09:17:02;2.08;;;0.80;;
45136;SDS011;30894;51.740;19.498;2023-06-05T09:19:35;1.45;;;0.70;;
45136;SDS011;30894;51.740;19.498;2023-06-05T09:22:06;0.60;;;0.60;;
45136;SDS011;30894;51.740;19.498;2023-06-05T09:27:06;1.05;;;0.70;;
45136;SDS011;30894;51.740;19.498;2023-06-05T09:29:36;3.85;;;0.60;;
45136;SDS011;30894;51.740;19.498;2023-06-05T09:32:07;0.98;;;0.55;;
45136;SDS011;30894;51.740;19.498;2023-06-05T09:34:45;1.20;;;0.50;;
45136;SDS011;30894;51.740;19.498;2023-06-05T09:37:38;1.17;;;0.95;;
45136;SDS011;30894;51.740;19.498;2023-06-05T09:40:11;1.50;;;0.80;;
45136;SDS011;30894;51.740;19.498;2023-06-05T09:42:44;1.55;;;0.70;;
45136;SDS011;30894;51.740;19.498;2023-06-05T09:45:10;5.40;;;0.82;;
45136;SDS011;30894;51.740;19.498;2023-06-05T09:47:37;0.50;;;0.50;;
45136;SDS011;30894;51.740;19.498;2023-06-05T09:50:03;0.60;;;0.60;;
45136;SDS011;30894;51.740;19.498;2023-06-05T09:52:31;0.85;;;0.70;;
45136;SDS011;30894;51.740;19.498;2023-06-05T09:55:02;0.85;;;0.60;;
45136;SDS011;30894;51.740;19.498;2023-06-05T09:57:31;0.70;;;0.70;;
45136;SDS011;30894;51.740;19.498;2023-06-05T10:00:00;1.70;;;0.70;;
45136;SDS011;30894;51.740;19.498;2023-06-05T10:02:32;2.55;;;0.70;;
45136;SDS011;30894;51.740;19.498;2023-06-05T10:05:04;4.05;;;0.73;;
45136;SDS011;30894;51.740;19.498;2023-06-05T10:07:37;0.93;;;0.60;;
45136;SDS011;30894;51.740;19.498;2023-06-05T10:10:08;2.13;;;0.68;;
45136;SDS011;30894;51.740;19.498;2023-06-05T10:12:35;3.38;;;0.80;;
45136;SDS011;30894;51.740;19.498;2023-06-05T10:15:06;1.63;;;0.80;;
45136;SDS011;30894;51.740;19.498;2023-06-05T10:17:36;3.75;;;0.68;;
45136;SDS011;30894;51.740;19.498;2023-06-05T10:20:05;0.70;;;0.60;;
45136;SDS011;30894;51.740;19.498;2023-06-05T10:22:33;1.48;;;0.70;;
45136;SDS011;30894;51.740;19.498;2023-06-05T10:25:07;1.33;;;0.82;;
45136;SDS011;30894;51.740;19.498;2023-06-05T10:40:06;1.10;;;0.73;;
45136;SDS011;30894;51.740;19.498;2023-06-05T10:42:34;1.85;;;0.68;;
45136;SDS011;30894;51.740;19.498;2023-06-05T10:45:03;0.60;;;0.60;;
45136;SDS011;30894;51.740;19.498;2023-06-05T10:52:49;1.30;;;0.60;;
45136;SDS011;30894;51.740;19.498;2023-06-05T10:55:17;0.63;;;0.60;;
45136;SDS011;30894;51.740;19.498;2023-06-05T10:58:02;1.02;;;0.70;;
45136;SDS011;30894;51.740;19.498;2023-06-05T11:00:35;3.05;;;0.85;;
45136;SDS011;30894;51.740;19.498;2023-06-05T11:03:07;2.53;;;0.80;;
45136;SDS011;30894;51.740;19.498;2023-06-05T11:05:34;1.40;;;0.70;;
45136;SDS011;30894;51.740;19.498;2023-06-05T11:13:55;0.75;;;0.68;;
45136;SDS011;30894;51.740;19.498;2023-06-05T11:19:34;1.08;;;0.82;;
45136;SDS011;30894;51.740;19.498;2023-06-05T11:24:36;1.85;;;0.73;;
45136;SDS011;30894;51.740;19.498;2023-06-05T11:27:04;1.55;;;0.70;;
45136;SDS011;30894;51.740;19.498;2023-06-05T11:29:32;1.27;;;0.68;;
45136;SDS011;30894;51.740;19.498;2023-06-05T11:31:59;2.97;;;0.70;;
45136;SDS011;30894;51.740;19.498;2023-06-05T11:34:26;1.42;;;0.63;;
45136;SDS011;30894;51.740;19.498;2023-06-05T11:37:03;1.15;;;0.65;;
45136;SDS011;30894;51.740;19.498;2023-06-05T11:39:43;2.63;;;0.80;;
45136;SDS011;30894;51.740;19.498;2023-06-05T11:42:09;2.00;;;0.77;;
45136;SDS011;30894;51.740;19.498;2023-06-05T11:44:38;3.15;;;0.80;;
45136;SDS011;30894;51.740;19.498;2023-06-05T11:47:05;1.80;;;0.68;;
45136;SDS011;30894;51.740;19.498;2023-06-05T11:49:33;1.00;;;0.70;;
45136;SDS011;30894;51.740;19.498;2023-06-05T11:52:00;2.80;;;0.80;;
45136;SDS011;30894;51.740;19.498;2023-06-05T11:54:30;4.32;;;0.88;;
45136;SDS011;30894;51.740;19.498;2023-06-05T11:57:05;0.70;;;0.70;;
45136;SDS011;30894;51.740;19.498;2023-06-05T11:59:36;3.17;;;0.80;;
45136;SDS011;30894;51.740;19.498;2023-06-05T12:02:06;2.65;;;1.00;;
45136;SDS011;30894;51.740;19.498;2023-06-05T12:04:39;1.55;;;0.77;;
45136;SDS011;30894;51.740;19.498;2023-06-05T12:07:08;1.02;;;0.60;;
45136;SDS011;30894;51.740;19.498;2023-06-05T12:09:35;0.70;;;0.70;;
45136;SDS011;30894;51.740;19.498;2023-06-05T12:12:07;2.42;;;1.00;;
45136;SDS011;30894;51.740;19.498;2023-06-05T12:14:34;2.38;;;0.70;;
45136;SDS011;30894;51.740;19.498;2023-06-05T12:17:11;1.05;;;0.73;;
45136;SDS011;30894;51.740;19.498;2023-06-05T12:19:37;3.72;;;0.80;;
45136;SDS011;30894;51.740;19.498;2023-06-05T12:22:06;1.80;;;0.77;;
45136;SDS011;30894;51.740;19.498;2023-06-05T12:24:36;1.67;;;0.93;;
45136;SDS011;30894;51.740;19.498;2023-06-05T12:27:04;2.38;;;0.90;;
45136;SDS011;30894;51.740;19.498;2023-06-05T12:29:58;1.70;;;0.73;;
45136;SDS011;30894;51.740;19.498;2023-06-05T12:32:39;0.80;;;0.68;;
45136;SDS011;30894;51.740;19.498;2023-06-05T12:35:21;0.60;;;0.60;;
45136;SDS011;30894;51.740;19.498;2023-06-05T12:38:05;0.88;;;0.70;;
45136;SDS011;30894;51.740;19.498;2023-06-05T12:40:33;1.20;;;0.90;;
45136;SDS011;30894;51.740;19.498;2023-06-05T12:43:00;0.82;;;0.73;;
45136;SDS011;30894;51.740;19.498;2023-06-05T12:45:26;1.10;;;0.80;;
45136;SDS011;30894;51.740;19.498;2023-06-05T12:47:53;1.08;;;0.90;;
45136;SDS011;30894;51.740;19.498;2023-06-05T12:50:27;1.42;;;0.90;;
45136;SDS011;30894;51.740;19.498;2023-06-05T12:52:53;1.55;;;0.63;;
45136;SDS011;30894;51.740;19.498;2023-06-05T12:55:23;0.65;;;0.65;;
45136;SDS011;30894;51.740;19.498;2023-06-05T12:57:50;2.80;;;0.80;;
45136;SDS011;30894;51.740;19.498;2023-06-05T13:00:16;0.93;;;0.82;;
45136;SDS011;30894;51.740;19.498;2023-06-05T13:02:46;1.35;;;0.70;;
45136;SDS011;30894;51.740;19.498;2023-06-05T13:05:14;2.28;;;0.80;;
45136;SDS011;30894;51.740;19.498;2023-06-05T13:07:43;1.60;;;0.90;;
45136;SDS011;30894;51.740;19.498;2023-06-05T13:10:10;1.60;;;0.90;;
45136;SDS011;30894;51.740;19.498;2023-06-05T13:12:37;0.70;;;0.70;;
45136;SDS011;30894;51.740;19.498;2023-06-05T13:15:06;0.70;;;0.60;;
45136;SDS011;30894;51.740;19.498;2023-06-05T13:17:33;1.77;;;1.10;;
45136;SDS011;30894;51.740;19.498;2023-06-05T13:20:01;0.95;;;0.70;;
45136;SDS011;30894;51.740;19.498;2023-06-05T13:22:34;2.67;;;0.85;;
45136;SDS011;30894;51.740;19.498;2023-06-05T13:25:01;1.27;;;0.63;;
45136;SDS011;30894;51.740;19.498;2023-06-05T13:27:27;3.03;;;0.80;;
45136;SDS011;30894;51.740;19.498;2023-06-05T13:29:54;2.05;;;1.23;;
45136;SDS011;30894;51.740;19.498;2023-06-05T13:32:20;2.28;;;1.00;;
45136;SDS011;30894;51.740;19.498;2023-06-05T13:34:47;3.15;;;0.80;;
45136;SDS011;30894;51.740;19.498;2023-06-05T13:37:13;1.55;;;0.85;;
45136;SDS011;30894;51.740;19.498;2023-06-05T13:39:39;2.70;;;0.75;;
45136;SDS011;30894;51.740;19.498;2023-06-05T13:42:05;1.00;;;0.70;;
45136;SDS011;30894;51.740;19.498;2023-06-05T13:44:32;0.70;;;0.63;;
45136;SDS011;30894;51.740;19.498;2023-06-05T13:46:59;0.88;;;0.82;;
45136;SDS011;30894;51.740;19.498;2023-06-05T13:49:29;1.38;;;0.75;;
45136;SDS011;30894;51.740;19.498;2023-06-05T13:51:58;1.27;;;0.77;;
45136;SDS011;30894;51.740;19.498;2023-06-05T13:54:24;4.13;;;0.90;;
45136;SDS011;30894;51.740;19.498;2023-06-05T13:56:50;1.08;;;0.90;;
45136;SDS011;30894;51.740;19.498;2023-06-05T13:59:17;1.02;;;0.75;;
45136;SDS011;30894;51.740;19.498;2023-06-05T14:01:43;0.90;;;0.80;;
45136;SDS011;30894;51.740;19.498;2023-06-05T14:04:10;0.95;;;0.80;;
45136;SDS011;30894;51.740;19.498;2023-06-05T14:06:36;0.82;;;0.70;;
45136;SDS011;30894;51.740;19.498;2023-06-05T14:09:05;5.97;;;1.23;;
45136;SDS011;30894;51.740;19.498;2023-06-05T14:11:31;0.75;;;0.63;;
45136;SDS011;30894;51.740;19.498;2023-06-05T14:13:58;1.88;;;1.00;;
45136;SDS011;30894;51.740;19.498;2023-06-05T14:16:24;1.00;;;0.73;;
45136;SDS011;30894;51.740;19.498;2023-06-05T14:18:53;1.02;;;0.90;;
45136;SDS011;30894;51.740;19.498;2023-06-05T14:21:20;1.70;;;1.05;;
45136;SDS011;30894;51.740;19.498;2023-06-05T14:23:47;1.83;;;1.08;;
45136;SDS011;30894;51.740;19.498;2023-06-05T14:26:14;0.77;;;0.65;;
45136;SDS011;30894;51.740;19.498;2023-06-05T14:28:42;3.38;;;1.00;;
45136;SDS011;30894;51.740;19.498;2023-06-05T14:31:11;4.57;;;0.90;;
45136;SDS011;30894;51.740;19.498;2023-06-05T14:33:38;3.28;;;0.88;;
45136;SDS011;30894;51.740;19.498;2023-06-05T14:36:08;1.92;;;1.00;;
45136;SDS011;30894;51.740;19.498;2023-06-05T14:38:35;1.45;;;0.80;;
45136;SDS011;30894;51.740;19.498;2023-06-05T14:41:02;1.60;;;0.75;;
45136;SDS011;30894;51.740;19.498;2023-06-05T14:43:29;1.17;;;0.70;;
45136;SDS011;30894;51.740;19.498;2023-06-05T14:45:57;1.70;;;0.98;;
45136;SDS011;30894;51.740;19.498;2023-06-05T14:48:26;4.97;;;0.82;;
45136;SDS011;30894;51.740;19.498;2023-06-05T14:50:52;1.25;;;1.00;;
45136;SDS011;30894;51.740;19.498;2023-06-05T14:53:20;1.60;;;0.82;;
45136;SDS011;30894;51.740;19.498;2023-06-05T14:55:47;5.68;;;0.93;;
45136;SDS011;30894;51.740;19.498;2023-06-05T14:58:15;1.05;;;0.82;;
45136;SDS011;30894;51.740;19.498;2023-06-05T15:00:42;1.63;;;0.70;;
45136;SDS011;30894;51.740;19.498;2023-06-05T15:03:11;8.38;;;1.02;;
45136;SDS011;30894;51.740;19.498;2023-06-05T15:05:37;1.10;;;0.80;;
45136;SDS011;30894;51.740;19.498;2023-06-05T15:08:04;2.67;;;0.90;;
45136;SDS011;30894;51.740;19.498;2023-06-05T15:10:31;2.05;;;0.80;;
45136;SDS011;30894;51.740;19.498;2023-06-05T15:13:02;1.05;;;0.80;;